createdAt,value
2023-02-13T00:01:26.002Z,16.52
2023-02-13T00:03:54.639Z,16.51
2023-02-13T00:06:23.169Z,16.48
2023-02-13T00:08:51.792Z,16.48
2023-02-13T00:11:20.859Z,16.48
2023-02-13T00:13:49.709Z,16.46
2023-02-13T00:16:18.084Z,16.43
2023-02-13T00:18:46.658Z,16.42
2023-02-13T00:21:15.353Z,16.41
2023-02-13T00:23:43.904Z,16.38
2023-02-13T00:26:14.576Z,16.39
2023-02-13T00:28:46.140Z,16.35
2023-02-13T00:31:17.204Z,16.37
2023-02-13T00:33:46.292Z,16.36
2023-02-13T00:36:19.264Z,16.33
2023-02-13T00:38:47.851Z,16.33
2023-02-13T00:41:17.602Z,16.31
2023-02-13T00:43:47.142Z,16.31
2023-02-13T00:46:16.683Z,16.30
2023-02-13T00:48:45.322Z,16.26
2023-02-13T00:51:13.793Z,16.26
2023-02-13T00:53:42.337Z,16.25
2023-02-13T00:56:10.727Z,16.22
2023-02-13T00:58:39.697Z,16.25
2023-02-13T01:01:07.958Z,16.21
2023-02-13T01:03:36.847Z,16.19
2023-02-13T01:06:05.654Z,16.19
2023-02-13T01:08:34.878Z,16.18
2023-02-13T01:11:03.172Z,16.17
2023-02-13T01:13:31.841Z,16.17
2023-02-13T01:16:00.120Z,16.17
2023-02-13T01:18:29.249Z,16.14
2023-02-13T01:21:04.160Z,16.11
2023-02-13T01:23:34.398Z,16.13
2023-02-13T01:26:07.192Z,16.12
2023-02-13T01:28:35.921Z,16.11
2023-02-13T01:31:06.255Z,16.10
2023-02-13T01:33:36.272Z,16.09
2023-02-13T01:36:12.046Z,16.07
2023-02-13T01:38:41.445Z,16.05
2023-02-13T01:41:10.934Z,16.02
2023-02-13T01:43:45.566Z,16.04
2023-02-13T01:46:18.738Z,16.03
2023-02-13T01:48:48.647Z,16.02
2023-02-13T01:51:20.843Z,16.00
2023-02-13T01:53:59.959Z,15.97
2023-02-13T01:56:34.487Z,15.97
2023-02-13T01:59:08.989Z,15.98
2023-02-13T02:01:37.664Z,15.95
2023-02-13T02:04:22.779Z,15.94
2023-02-13T02:07:00.452Z,15.94
2023-02-13T02:09:35.293Z,15.93
2023-02-13T02:12:27.013Z,15.93
2023-02-13T02:14:58.222Z,15.92
2023-02-13T02:17:27.976Z,15.90
2023-02-13T02:20:17.787Z,15.90
2023-02-13T02:23:38.432Z,15.88
2023-02-13T02:26:30.920Z,15.86
2023-02-13T02:29:24.000Z,15.85
2023-02-13T02:32:20.119Z,15.83
2023-02-13T02:35:12.271Z,15.83
2023-02-13T02:38:02.812Z,15.81
2023-02-13T02:40:43.762Z,15.80
2023-02-13T02:43:24.849Z,15.81
2023-02-13T02:46:35.306Z,15.80
2023-02-13T02:49:26.841Z,15.79
2023-02-13T02:52:20.781Z,15.77
2023-02-13T02:55:09.159Z,15.76
2023-02-13T02:58:21.300Z,15.74
2023-02-13T03:01:09.560Z,15.71
2023-02-13T03:03:58.777Z,15.71
2023-02-13T03:06:51.116Z,15.72
2023-02-13T03:09:45.506Z,15.71
2023-02-13T03:12:38.030Z,15.67
2023-02-13T03:15:06.511Z,15.66
2023-02-13T03:17:53.707Z,15.65
2023-02-13T03:21:06.380Z,15.64
2023-02-13T03:24:12.380Z,15.63
2023-02-13T03:26:58.412Z,15.61
2023-02-13T03:29:58.087Z,15.62
2023-02-13T03:32:37.045Z,15.61
2023-02-13T03:35:38.582Z,15.59
2023-02-13T03:38:17.034Z,15.58
2023-02-13T03:41:09.448Z,15.56
2023-02-13T03:43:54.973Z,15.55
2023-02-13T03:46:25.413Z,15.56
2023-02-13T03:49:12.912Z,15.54
2023-02-13T03:51:51.913Z,15.54
2023-02-13T03:54:46.612Z,15.52
2023-02-13T03:57:37.521Z,15.51
2023-02-13T04:00:09.466Z,15.49
2023-02-13T04:02:51.362Z,15.44
2023-02-13T04:05:24.361Z,15.49
2023-02-13T04:07:52.722Z,15.46
2023-02-13T04:10:22.111Z,15.44
2023-02-13T04:12:55.288Z,15.46
2023-02-13T04:15:39.500Z,15.44
2023-02-13T04:18:43.261Z,15.44
2023-02-13T04:21:11.216Z,15.44
2023-02-13T04:23:39.404Z,15.41
2023-02-13T04:26:09.903Z,15.40
2023-02-13T04:28:38.508Z,15.37
2023-02-13T04:31:06.647Z,15.39
2023-02-13T04:33:35.072Z,15.37
2023-02-13T04:36:03.096Z,15.40
2023-02-13T04:38:31.467Z,15.48
2023-02-13T04:40:59.646Z,15.52
2023-02-13T04:43:28.154Z,15.59
2023-02-13T04:45:56.119Z,15.64
2023-02-13T04:48:24.549Z,15.74
2023-02-13T04:50:52.535Z,15.84
2023-02-13T04:53:20.888Z,15.82
2023-02-13T04:55:48.808Z,15.95
2023-02-13T04:58:17.072Z,16.08
2023-02-13T05:00:45.124Z,16.13
2023-02-13T05:03:13.957Z,16.27
2023-02-13T05:05:41.957Z,16.38
2023-02-13T05:08:10.373Z,16.51
2023-02-13T05:10:38.304Z,16.63
2023-02-13T05:13:06.965Z,16.68
2023-02-13T05:15:35.025Z,16.79
2023-02-13T05:18:03.423Z,16.77
2023-02-13T05:20:31.406Z,16.92
2023-02-13T05:23:18.250Z,16.94
2023-02-13T05:25:46.214Z,17.00
2023-02-13T05:28:33.832Z,17.05
2023-02-13T05:31:02.231Z,17.06
2023-02-13T05:33:30.923Z,17.20
2023-02-13T05:35:58.914Z,17.29
2023-02-13T05:38:27.325Z,17.41
2023-02-13T05:40:55.826Z,17.50
2023-02-13T05:43:24.566Z,17.48
2023-02-13T05:45:52.668Z,17.57
2023-02-13T05:48:21.020Z,17.61
2023-02-13T05:50:49.090Z,17.68
2023-02-13T05:53:17.378Z,17.67
2023-02-13T05:55:45.417Z,17.73
2023-02-13T05:58:14.134Z,17.75
2023-02-13T06:00:42.158Z,17.68
2023-02-13T06:03:10.451Z,17.62
2023-02-13T06:05:38.633Z,17.52
2023-02-13T06:08:06.937Z,17.53
2023-02-13T06:10:34.904Z,17.56
2023-02-13T06:13:03.352Z,17.51
2023-02-13T06:15:32.013Z,17.45
2023-02-13T06:18:01.328Z,17.47
2023-02-13T06:20:29.486Z,17.37
2023-02-13T06:22:57.921Z,17.32
2023-02-13T06:25:26.024Z,17.28
2023-02-13T06:27:54.600Z,17.19
2023-02-13T06:30:22.904Z,17.12
2023-02-13T06:32:51.395Z,17.15
2023-02-13T06:35:19.414Z,17.13
2023-02-13T06:37:49.215Z,17.13
2023-02-13T06:40:17.703Z,17.09
2023-02-13T06:42:46.313Z,17.02
2023-02-13T06:45:14.888Z,17.04
2023-02-13T06:47:45.067Z,16.99
2023-02-13T06:50:14.957Z,16.97
2023-02-13T06:52:51.438Z,16.94
2023-02-13T06:55:21.069Z,16.92
2023-02-13T06:57:49.676Z,16.88
2023-02-13T07:00:19.479Z,16.80
2023-02-13T07:02:48.536Z,16.82
2023-02-13T07:05:17.201Z,16.78
2023-02-13T07:07:45.860Z,16.68
2023-02-13T07:10:15.139Z,16.63
2023-02-13T07:12:45.738Z,16.64
2023-02-13T07:15:15.646Z,16.59
2023-02-13T07:17:44.186Z,16.59
2023-02-13T07:20:13.680Z,16.56
2023-02-13T07:22:42.348Z,16.52
2023-02-13T07:25:10.611Z,16.49
2023-02-13T07:27:40.263Z,16.50
2023-02-13T07:30:09.827Z,16.46
2023-02-13T07:32:38.349Z,16.43
2023-02-13T07:35:06.716Z,16.40
2023-02-13T07:37:35.357Z,16.37
2023-02-13T07:40:05.674Z,16.35
2023-02-13T07:42:35.639Z,16.34
2023-02-13T07:45:06.243Z,16.32
2023-02-13T07:47:35.363Z,16.30
2023-02-13T07:50:06.299Z,16.29
2023-02-13T07:52:34.901Z,16.26
2023-02-13T07:55:03.249Z,16.24
2023-02-13T07:57:32.165Z,16.21
2023-02-13T08:00:00.411Z,16.18
2023-02-13T08:02:29.074Z,16.15
2023-02-13T08:04:57.340Z,16.13
2023-02-13T08:07:25.963Z,16.12
2023-02-13T08:10:12.809Z,16.12
2023-02-13T08:12:41.721Z,16.11
2023-02-13T08:15:12.886Z,16.09
2023-02-13T08:17:41.716Z,16.09
2023-02-13T08:20:10.570Z,16.08
2023-02-13T08:22:39.842Z,16.04
2023-02-13T08:25:08.396Z,16.05
2023-02-13T08:27:36.977Z,16.04
2023-02-13T08:30:06.457Z,16.03
2023-02-13T08:32:42.077Z,16.03
2023-02-13T08:35:20.447Z,16.00
2023-02-13T08:37:49.725Z,16.02
2023-02-13T08:40:18.249Z,16.00
2023-02-13T08:42:46.828Z,15.96
2023-02-13T08:45:15.156Z,16.00
2023-02-13T08:47:43.736Z,16.04
2023-02-13T08:50:12.046Z,16.03
2023-02-13T08:52:40.556Z,16.04
2023-02-13T08:55:08.987Z,16.05
2023-02-13T08:57:37.705Z,16.04
2023-02-13T09:00:06.485Z,16.04
2023-02-13T09:02:35.133Z,16.04
2023-02-13T09:05:03.498Z,16.05
2023-02-13T09:07:31.957Z,16.04
2023-02-13T09:10:00.231Z,16.06
2023-02-13T09:12:28.766Z,16.06
2023-02-13T09:14:57.096Z,16.06
2023-02-13T09:17:25.917Z,16.08
2023-02-13T09:19:54.079Z,16.07
2023-02-13T09:22:22.652Z,16.07
2023-02-13T09:24:50.801Z,16.08
2023-02-13T09:27:19.349Z,16.10
2023-02-13T09:29:47.677Z,16.09
2023-02-13T09:32:17.628Z,16.09
2023-02-13T09:34:45.829Z,16.10
2023-02-13T09:37:14.403Z,16.15
2023-02-13T09:39:42.752Z,16.14
2023-02-13T09:42:18.822Z,16.07
2023-02-13T09:44:49.157Z,16.15
2023-02-13T09:47:43.135Z,16.16
2023-02-13T09:50:17.558Z,16.14
2023-02-13T09:52:47.072Z,16.20
2023-02-13T09:55:29.406Z,16.20
2023-02-13T09:58:21.009Z,16.20
2023-02-13T10:00:53.702Z,16.22
2023-02-13T10:03:29.645Z,16.19
2023-02-13T10:06:36.561Z,16.23
2023-02-13T10:09:05.123Z,16.22
2023-02-13T10:11:48.649Z,16.21
2023-02-13T10:14:20.329Z,16.20
2023-02-13T10:16:55.692Z,16.22
2023-02-13T10:19:43.084Z,16.24
2023-02-13T10:23:00.322Z,16.26
2023-02-13T10:25:32.072Z,16.26
2023-02-13T10:28:06.464Z,16.24
2023-02-13T10:30:42.689Z,16.25
2023-02-13T10:33:23.720Z,16.28
2023-02-13T10:36:10.364Z,16.33
2023-02-13T10:38:45.166Z,16.41
2023-02-13T10:41:23.236Z,16.56
2023-02-13T10:44:06.562Z,16.67
2023-02-13T10:46:41.047Z,16.79
2023-02-13T10:49:27.573Z,16.92
2023-02-13T10:52:40.530Z,17.07
2023-02-13T10:55:33.121Z,17.19
2023-02-13T10:58:20.792Z,17.31
2023-02-13T11:00:56.046Z,17.38
2023-02-13T11:03:27.320Z,17.49
2023-02-13T11:05:57.023Z,17.62
2023-02-13T11:08:29.187Z,17.71
2023-02-13T11:10:57.252Z,17.84
2023-02-13T11:13:28.620Z,17.93
2023-02-13T11:15:58.241Z,17.97
2023-02-13T11:18:29.758Z,18.07
2023-02-13T11:21:02.945Z,18.11
2023-02-13T11:23:31.215Z,18.17
2023-02-13T11:26:10.202Z,18.27
2023-02-13T11:28:51.634Z,18.31
2023-02-13T11:31:22.892Z,18.40
2023-02-13T11:33:51.445Z,18.53
2023-02-13T11:36:33.910Z,18.46
2023-02-13T11:39:05.534Z,18.46
2023-02-13T11:41:41.608Z,18.48
2023-02-13T11:44:26.871Z,18.38
2023-02-13T11:46:57.122Z,18.36
2023-02-13T11:49:28.334Z,18.31
2023-02-13T11:51:58.582Z,18.30
2023-02-13T11:54:36.795Z,18.31
2023-02-13T11:57:24.861Z,18.28
2023-02-13T11:59:54.047Z,18.25
2023-02-13T12:02:28.430Z,18.17
2023-02-13T12:05:16.913Z,17.61
2023-02-13T12:07:45.991Z,17.26
2023-02-13T12:10:24.508Z,17.25
2023-02-13T12:13:03.175Z,17.14
2023-02-13T12:15:37.293Z,17.15
2023-02-13T12:18:23.054Z,17.01
2023-02-13T12:21:03.644Z,17.14
2023-02-13T12:23:40.842Z,17.58
2023-02-13T12:26:45.730Z,17.89
2023-02-13T12:29:37.738Z,18.08
2023-02-13T12:32:22.528Z,18.13
2023-02-13T12:35:13.391Z,18.17
2023-02-13T12:37:47.573Z,18.13
2023-02-13T12:40:21.360Z,18.13
2023-02-13T12:43:03.724Z,18.09
2023-02-13T12:45:31.804Z,18.12
2023-02-13T12:48:03.073Z,18.04
2023-02-13T12:50:39.949Z,18.01
2023-02-13T12:53:42.597Z,17.97
2023-02-13T12:56:32.108Z,17.96
2023-02-13T12:59:22.247Z,17.93
2023-02-13T13:02:21.679Z,17.93
2023-02-13T13:05:12.660Z,17.88
2023-02-13T13:07:52.601Z,17.86
2023-02-13T13:10:27.538Z,17.80
2023-02-13T13:13:14.311Z,17.81
2023-02-13T13:16:08.360Z,17.78
2023-02-13T13:18:58.776Z,17.77
2023-02-13T13:21:33.430Z,17.75
2023-02-13T13:24:08.681Z,17.75
2023-02-13T13:26:42.630Z,17.72
2023-02-13T13:29:19.642Z,17.73
2023-02-13T13:32:08.795Z,17.70
2023-02-13T13:34:39.553Z,17.69
2023-02-13T13:37:17.440Z,17.67
2023-02-13T13:40:04.052Z,17.68
2023-02-13T13:42:55.605Z,17.66
2023-02-13T13:45:35.982Z,17.68
2023-02-13T13:48:43.729Z,17.65
2023-02-13T13:51:15.134Z,17.64
2023-02-13T13:54:01.855Z,17.65
2023-02-13T13:57:08.872Z,17.63
2023-02-13T13:59:37.243Z,17.61
2023-02-13T14:02:17.283Z,17.61
2023-02-13T14:05:04.485Z,17.63
2023-02-13T14:07:37.763Z,17.60
2023-02-13T14:10:07.584Z,17.63
2023-02-13T14:12:37.351Z,17.60
2023-02-13T14:15:26.233Z,17.66
2023-02-13T14:17:55.069Z,17.65
2023-02-13T14:20:36.987Z,17.67
2023-02-13T14:23:17.267Z,17.66
2023-02-13T14:25:45.878Z,17.67
2023-02-13T14:28:24.147Z,17.65
2023-02-13T14:31:04.514Z,17.65
2023-02-13T14:33:33.090Z,17.65
2023-02-13T14:36:17.758Z,17.63
2023-02-13T14:39:08.318Z,17.64
2023-02-13T14:41:51.870Z,17.59
2023-02-13T14:44:51.505Z,17.63
2023-02-13T14:47:33.692Z,17.62
2023-02-13T14:50:04.732Z,17.59
2023-02-13T14:52:40.655Z,17.57
2023-02-13T14:55:14.067Z,17.56
2023-02-13T14:57:49.876Z,17.49
2023-02-13T15:00:55.301Z,17.52
2023-02-13T15:03:38.683Z,17.49
2023-02-13T15:06:27.956Z,17.49
2023-02-13T15:08:57.046Z,17.48
2023-02-13T15:11:43.152Z,17.45
2023-02-13T15:14:31.970Z,17.47
2023-02-13T15:17:07.148Z,17.45
2023-02-13T15:19:38.007Z,17.40
2023-02-13T15:22:07.363Z,17.36
2023-02-13T15:24:46.674Z,17.37
2023-02-13T15:27:42.552Z,17.34
2023-02-13T15:30:23.995Z,17.34
2023-02-13T15:32:57.639Z,17.32
2023-02-13T15:35:39.229Z,17.30
2023-02-13T15:38:33.308Z,17.30
2023-02-13T15:41:09.284Z,17.27
2023-02-13T15:43:39.958Z,17.25
2023-02-13T15:46:34.013Z,17.24
2023-02-13T15:49:07.028Z,17.22
2023-02-13T15:51:35.648Z,17.20
2023-02-13T15:54:06.797Z,17.16
2023-02-13T15:56:35.740Z,17.16
2023-02-13T15:59:03.946Z,17.14
2023-02-13T16:01:32.510Z,17.10
2023-02-13T16:04:04.295Z,17.08
2023-02-13T16:06:33.601Z,17.09
2023-02-13T16:09:02.370Z,17.10
2023-02-13T16:11:40.630Z,17.19
2023-02-13T16:14:21.490Z,17.29
2023-02-13T16:17:04.288Z,17.38
2023-02-13T16:19:42.880Z,17.43
2023-02-13T16:22:31.393Z,17.56
2023-02-13T16:25:38.651Z,17.69
2023-02-13T16:28:10.162Z,17.76
2023-02-13T16:30:43.688Z,17.76
2023-02-13T16:33:14.811Z,17.92
2023-02-13T16:35:57.046Z,17.94
2023-02-13T16:38:35.388Z,17.98
2023-02-13T16:41:06.133Z,18.09
2023-02-13T16:43:42.988Z,18.09
2023-02-13T16:46:19.867Z,18.07
2023-02-13T16:48:57.365Z,18.24
2023-02-13T16:51:37.549Z,18.27
2023-02-13T16:54:22.824Z,18.27
2023-02-13T16:56:57.279Z,18.36
2023-02-13T16:59:25.530Z,18.49
2023-02-13T17:02:15.132Z,18.57
2023-02-13T17:05:06.563Z,18.64
2023-02-13T17:07:51.376Z,18.59
2023-02-13T17:10:35.556Z,18.69
2023-02-13T17:13:17.737Z,18.85
2023-02-13T17:15:47.906Z,18.96
2023-02-13T17:18:16.022Z,19.04
2023-02-13T17:20:45.909Z,19.02
2023-02-13T17:23:18.753Z,19.08
2023-02-13T17:25:48.524Z,19.15
2023-02-13T17:28:21.185Z,19.19
2023-02-13T17:30:51.849Z,19.27
2023-02-13T17:33:21.357Z,19.17
2023-02-13T17:35:49.956Z,19.12
2023-02-13T17:38:17.944Z,19.11
2023-02-13T17:40:46.973Z,19.09
2023-02-13T17:43:17.427Z,19.00
2023-02-13T17:45:46.451Z,18.90
2023-02-13T17:48:14.546Z,18.86
2023-02-13T17:50:43.216Z,18.81
2023-02-13T17:53:37.604Z,18.81
2023-02-13T17:56:05.873Z,18.75
2023-02-13T17:58:33.958Z,18.72
2023-02-13T18:01:02.642Z,18.71
2023-02-13T18:03:31.079Z,18.64
2023-02-13T18:05:59.478Z,18.73
2023-02-13T18:08:27.450Z,18.73
2023-02-13T18:10:55.679Z,18.81
2023-02-13T18:13:23.696Z,18.86
2023-02-13T18:15:52.494Z,18.84
2023-02-13T18:18:20.642Z,18.98
2023-02-13T18:20:55.968Z,19.18
2023-02-13T18:23:24.140Z,19.18
2023-02-13T18:25:52.592Z,19.21
2023-02-13T18:28:20.593Z,19.14
2023-02-13T18:30:49.027Z,19.20
2023-02-13T18:33:17.138Z,19.13
2023-02-13T18:35:45.492Z,19.10
2023-02-13T18:38:13.483Z,18.98
2023-02-13T18:40:41.765Z,18.94
2023-02-13T18:43:09.938Z,18.91
2023-02-13T18:45:38.943Z,18.79
2023-02-13T18:48:09.262Z,18.77
2023-02-13T18:50:42.015Z,18.69
2023-02-13T18:53:10.411Z,18.63
2023-02-13T18:55:39.379Z,18.63
2023-02-13T18:58:08.789Z,18.63
2023-02-13T19:00:37.392Z,18.57
2023-02-13T19:03:05.630Z,18.52
2023-02-13T19:05:34.252Z,18.48
2023-02-13T19:08:02.495Z,18.44
2023-02-13T19:10:31.510Z,18.44
2023-02-13T19:12:59.775Z,18.40
2023-02-13T19:15:28.370Z,18.35
2023-02-13T19:17:57.631Z,18.32
2023-02-13T19:20:26.208Z,18.28
2023-02-13T19:22:55.322Z,18.22
2023-02-13T19:25:23.834Z,18.18
2023-02-13T19:27:52.033Z,18.15
2023-02-13T19:30:20.817Z,18.11
2023-02-13T19:32:49.051Z,18.10
2023-02-13T19:35:17.894Z,18.14
2023-02-13T19:37:46.102Z,18.18
2023-02-13T19:40:14.670Z,18.22
2023-02-13T19:42:42.924Z,18.25
2023-02-13T19:45:11.879Z,18.36
2023-02-13T19:47:40.067Z,18.34
2023-02-13T19:50:09.654Z,18.43
2023-02-13T19:52:38.206Z,18.58
2023-02-13T19:55:07.332Z,18.67
2023-02-13T19:57:36.123Z,18.71
2023-02-13T20:00:05.725Z,18.69
2023-02-13T20:02:40.260Z,18.67
2023-02-13T20:05:09.781Z,18.77
2023-02-13T20:07:38.096Z,18.63
2023-02-13T20:10:09.910Z,18.66
2023-02-13T20:12:38.573Z,18.67
2023-02-13T20:15:07.833Z,18.61
2023-02-13T20:17:38.277Z,18.59
2023-02-13T20:20:09.137Z,18.58
2023-02-13T20:22:37.744Z,18.54
2023-02-13T20:25:06.980Z,18.52
2023-02-13T20:30:16.214Z,18.48
2023-02-13T20:32:44.777Z,18.44
2023-02-13T20:35:13.519Z,18.47
2023-02-13T20:37:42.988Z,18.43
2023-02-13T20:40:12.535Z,18.38
2023-02-13T20:42:41.418Z,18.35
2023-02-13T20:45:10.699Z,18.34
2023-02-13T20:47:40.921Z,18.26
2023-02-13T20:50:12.384Z,18.24
2023-02-13T20:52:42.350Z,18.15
2023-02-13T20:55:12.223Z,18.17
2023-02-13T20:57:41.775Z,18.12
2023-02-13T21:00:14.419Z,18.16
2023-02-13T21:02:42.913Z,18.21
2023-02-13T21:05:11.784Z,18.27
2023-02-13T21:07:42.717Z,18.36
2023-02-13T21:10:13.076Z,18.44
2023-02-13T21:12:43.940Z,18.50
2023-02-13T21:15:15.525Z,18.57
2023-02-13T21:17:45.774Z,18.61
2023-02-13T21:20:14.550Z,18.69
2023-02-13T21:22:42.952Z,18.68
2023-02-13T21:25:15.065Z,18.72
2023-02-13T21:27:43.470Z,18.64
2023-02-13T21:30:12.750Z,18.60
2023-02-13T21:32:42.430Z,18.52
2023-02-13T21:35:11.103Z,18.56
2023-02-13T21:37:39.606Z,18.52
2023-02-13T21:40:09.098Z,18.48
2023-02-13T21:42:38.225Z,18.48
2023-02-13T21:45:07.215Z,18.42
2023-02-13T21:47:35.540Z,18.40
2023-02-13T21:50:07.709Z,18.40
2023-02-13T21:52:36.030Z,18.35
2023-02-13T21:55:06.498Z,18.32
2023-02-13T21:57:35.568Z,18.29
2023-02-13T22:00:06.680Z,18.24
2023-02-13T22:02:40.811Z,18.22
2023-02-13T22:05:09.361Z,18.15
2023-02-13T22:07:57.496Z,18.07
2023-02-13T22:10:25.994Z,18.05
2023-02-13T22:12:54.225Z,18.00
2023-02-13T22:15:23.167Z,17.99
2023-02-13T22:17:51.287Z,17.95
2023-02-13T22:20:22.406Z,17.92
2023-02-13T22:22:50.529Z,17.92
2023-02-13T22:25:19.003Z,17.89
2023-02-13T22:27:48.131Z,17.84
2023-02-13T22:30:16.850Z,17.80
2023-02-13T22:32:45.018Z,17.76
2023-02-13T22:35:13.443Z,17.75
2023-02-13T22:37:41.540Z,17.72
2023-02-13T22:40:10.319Z,17.71
2023-02-13T22:42:38.476Z,17.68
2023-02-13T22:45:07.618Z,17.65
2023-02-13T22:47:35.718Z,17.64
2023-02-13T22:50:04.353Z,17.62
2023-02-13T22:52:32.490Z,17.59
2023-02-13T22:55:00.974Z,17.52
2023-02-13T22:57:29.108Z,17.51
2023-02-13T22:59:57.605Z,17.50
2023-02-13T23:02:25.951Z,17.48
2023-02-13T23:04:54.506Z,17.45
2023-02-13T23:07:22.742Z,17.44
2023-02-13T23:09:51.223Z,17.40
2023-02-13T23:12:38.955Z,17.37
2023-02-13T23:15:10.754Z,17.37
2023-02-13T23:17:57.399Z,17.37
2023-02-13T23:20:26.822Z,17.33
2023-02-13T23:22:55.069Z,17.29
2023-02-13T23:25:23.731Z,17.27
2023-02-13T23:27:53.866Z,17.27
2023-02-13T23:30:23.110Z,17.25
2023-02-13T23:32:51.708Z,17.24
2023-02-13T23:35:20.734Z,17.21
2023-02-13T23:37:48.855Z,17.17
2023-02-13T23:40:17.482Z,17.17
2023-02-13T23:42:45.643Z,17.15
2023-02-13T23:45:14.259Z,17.14
2023-02-13T23:47:42.344Z,17.12
2023-02-13T23:50:11.002Z,17.10
2023-02-13T23:52:39.294Z,17.09
2023-02-13T23:55:08.004Z,17.04
2023-02-13T23:57:36.253Z,17.04
